sensor_id;sensor_type;location;lat;lon;timestamp;temperature;humidity
27745;DHT22;61387;48.112;8.616;2023-07-09T00:02:22;17.60;99.90
27745;DHT22;61387;48.112;8.616;2023-07-09T00:04:48;17.60;99.90
27745;DHT22;61387;48.112;8.616;2023-07-09T00:07:30;17.60;99.90
27745;DHT22;61387;48.112;8.616;2023-07-09T00:09:56;17.60;99.90
27745;DHT22;61387;48.112;8.616;2023-07-09T00:12:22;17.60;99.90
27745;DHT22;61387;48.112;8.616;2023-07-09T00:14:48;17.60;99.90
27745;DHT22;61387;48.112;8.616;2023-07-09T00:17:28;17.60;99.90
27745;DHT22;61387;48.112;8.616;2023-07-09T00:19:54;17.60;99.90
27745;DHT22;61387;48.112;8.616;2023-07-09T00:22:22;17.50;99.90
27745;DHT22;61387;48.112;8.616;2023-07-09T00:24:50;17.40;99.90
27745;DHT22;61387;48.112;8.616;2023-07-09T00:27:20;17.40;99.90
27745;DHT22;61387;48.112;8.616;2023-07-09T00:29:47;17.50;99.90
27745;DHT22;61387;48.112;8.616;2023-07-09T00:32:14;17.40;99.90
27745;DHT22;61387;48.112;8.616;2023-07-09T00:37:11;17.20;99.90
27745;DHT22;61387;48.112;8.616;2023-07-09T00:42:08;17.00;99.90
27745;DHT22;61387;48.112;8.616;2023-07-09T00:44:36;17.10;99.90
27745;DHT22;61387;48.112;8.616;2023-07-09T00:47:44;17.00;99.90
27745;DHT22;61387;48.112;8.616;2023-07-09T00:50:41;17.00;99.90
27745;DHT22;61387;48.112;8.616;2023-07-09T00:53:16;16.90;99.90
27745;DHT22;61387;48.112;8.616;2023-07-09T00:55:46;16.80;99.90
27745;DHT22;61387;48.112;8.616;2023-07-09T00:58:15;16.80;99.90
27745;DHT22;61387;48.112;8.616;2023-07-09T01:00:50;16.80;99.90
27745;DHT22;61387;48.112;8.616;2023-07-09T01:03:37;16.80;99.90
27745;DHT22;61387;48.112;8.616;2023-07-09T01:06:06;16.90;99.90
27745;DHT22;61387;48.112;8.616;2023-07-09T01:08:34;16.90;99.90
27745;DHT22;61387;48.112;8.616;2023-07-09T01:11:00;16.80;99.90
27745;DHT22;61387;48.112;8.616;2023-07-09T01:13:27;16.70;99.90
27745;DHT22;61387;48.112;8.616;2023-07-09T01:15:54;16.60;99.90
27745;DHT22;61387;48.112;8.616;2023-07-09T01:23:13;16.50;99.90
27745;DHT22;61387;48.112;8.616;2023-07-09T01:25:45;16.50;99.90
27745;DHT22;61387;48.112;8.616;2023-07-09T01:28:11;16.40;99.90
27745;DHT22;61387;48.112;8.616;2023-07-09T01:30:39;16.40;99.90
27745;DHT22;61387;48.112;8.616;2023-07-09T01:35:33;16.40;99.90
27745;DHT22;61387;48.112;8.616;2023-07-09T01:40:26;16.30;99.90
27745;DHT22;61387;48.112;8.616;2023-07-09T01:47:46;16.40;99.90
27745;DHT22;61387;48.112;8.616;2023-07-09T01:50:12;16.40;99.90
27745;DHT22;61387;48.112;8.616;2023-07-09T01:52:39;16.30;99.90
27745;DHT22;61387;48.112;8.616;2023-07-09T01:55:10;16.20;99.90
27745;DHT22;61387;48.112;8.616;2023-07-09T01:57:36;16.20;99.90
27745;DHT22;61387;48.112;8.616;2023-07-09T02:00:07;16.20;99.90
27745;DHT22;61387;48.112;8.616;2023-07-09T02:05:05;16.20;99.90
27745;DHT22;61387;48.112;8.616;2023-07-09T02:07:31;16.20;99.90
27745;DHT22;61387;48.112;8.616;2023-07-09T02:09:57;16.20;99.90
27745;DHT22;61387;48.112;8.616;2023-07-09T02:12:24;16.10;99.90
27745;DHT22;61387;48.112;8.616;2023-07-09T02:19:41;16.10;99.90
27745;DHT22;61387;48.112;8.616;2023-07-09T02:22:08;16.00;99.90
27745;DHT22;61387;48.112;8.616;2023-07-09T02:27:02;15.90;99.90
27745;DHT22;61387;48.112;8.616;2023-07-09T02:29:29;15.90;99.90
27745;DHT22;61387;48.112;8.616;2023-07-09T02:31:57;15.90;99.90
27745;DHT22;61387;48.112;8.616;2023-07-09T02:34:24;15.80;99.90
27745;DHT22;61387;48.112;8.616;2023-07-09T02:41:43;15.70;99.90
27745;DHT22;61387;48.112;8.616;2023-07-09T02:46:35;15.60;99.90
27745;DHT22;61387;48.112;8.616;2023-07-09T02:49:03;15.60;99.90
27745;DHT22;61387;48.112;8.616;2023-07-09T02:51:29;15.60;99.90
27745;DHT22;61387;48.112;8.616;2023-07-09T02:53:56;15.50;99.90
27745;DHT22;61387;48.112;8.616;2023-07-09T02:58:50;15.40;99.90
27745;DHT22;61387;48.112;8.616;2023-07-09T03:01:16;15.30;99.90
27745;DHT22;61387;48.112;8.616;2023-07-09T03:03:42;15.30;99.90
27745;DHT22;61387;48.112;8.616;2023-07-09T03:08:34;15.30;99.90
27745;DHT22;61387;48.112;8.616;2023-07-09T03:13:25;15.30;99.90
27745;DHT22;61387;48.112;8.616;2023-07-09T03:15:55;15.10;99.90
27745;DHT22;61387;48.112;8.616;2023-07-09T03:20:47;15.00;99.90
27745;DHT22;61387;48.112;8.616;2023-07-09T03:25:43;15.10;99.90
27745;DHT22;61387;48.112;8.616;2023-07-09T03:30:34;15.20;99.90
27745;DHT22;61387;48.112;8.616;2023-07-09T03:33:00;15.00;99.90
27745;DHT22;61387;48.112;8.616;2023-07-09T03:37:52;15.00;99.90
27745;DHT22;61387;48.112;8.616;2023-07-09T03:40:22;15.00;99.90
27745;DHT22;61387;48.112;8.616;2023-07-09T03:50:07;15.20;99.90
27745;DHT22;61387;48.112;8.616;2023-07-09T03:54:59;15.20;99.90
27745;DHT22;61387;48.112;8.616;2023-07-09T03:59:52;15.60;99.90
27745;DHT22;61387;48.112;8.616;2023-07-09T04:02:18;15.90;99.90
27745;DHT22;61387;48.112;8.616;2023-07-09T04:04:43;16.20;99.90
27745;DHT22;61387;48.112;8.616;2023-07-09T04:07:09;16.60;99.90
27745;DHT22;61387;48.112;8.616;2023-07-09T04:09:35;16.50;99.90
27745;DHT22;61387;48.112;8.616;2023-07-09T04:12:00;16.60;99.90
27745;DHT22;61387;48.112;8.616;2023-07-09T04:14:28;16.40;99.90
27745;DHT22;61387;48.112;8.616;2023-07-09T04:19:20;16.10;99.90
27745;DHT22;61387;48.112;8.616;2023-07-09T04:24:13;16.00;99.90
27745;DHT22;61387;48.112;8.616;2023-07-09T04:36:23;16.40;99.90
27745;DHT22;61387;48.112;8.616;2023-07-09T04:41:15;16.50;99.90
27745;DHT22;61387;48.112;8.616;2023-07-09T04:50:59;17.00;99.90
27745;DHT22;61387;48.112;8.616;2023-07-09T04:58:17;17.10;99.90
27745;DHT22;61387;48.112;8.616;2023-07-09T05:00:44;17.20;99.90
27745;DHT22;61387;48.112;8.616;2023-07-09T05:05:42;17.50;99.90
27745;DHT22;61387;48.112;8.616;2023-07-09T05:08:08;17.50;99.90
27745;DHT22;61387;48.112;8.616;2023-07-09T05:10:34;17.60;99.90
27745;DHT22;61387;48.112;8.616;2023-07-09T05:17:51;17.90;99.90
27745;DHT22;61387;48.112;8.616;2023-07-09T05:22:43;18.40;99.90
27745;DHT22;61387;48.112;8.616;2023-07-09T05:25:09;18.40;99.90
27745;DHT22;61387;48.112;8.616;2023-07-09T05:27:35;18.60;99.90
27745;DHT22;61387;48.112;8.616;2023-07-09T05:30:00;18.70;99.90
27745;DHT22;61387;48.112;8.616;2023-07-09T05:32:26;18.80;99.90
27745;DHT22;61387;48.112;8.616;2023-07-09T05:34:51;18.80;99.90
27745;DHT22;61387;48.112;8.616;2023-07-09T05:37:17;19.10;99.90
27745;DHT22;61387;48.112;8.616;2023-07-09T05:42:09;19.10;99.90
27745;DHT22;61387;48.112;8.616;2023-07-09T05:44:35;19.10;99.90
27745;DHT22;61387;48.112;8.616;2023-07-09T05:49:26;19.40;99.90
27745;DHT22;61387;48.112;8.616;2023-07-09T05:51:52;19.50;99.90
27745;DHT22;61387;48.112;8.616;2023-07-09T05:54:17;19.50;99.90
27745;DHT22;61387;48.112;8.616;2023-07-09T05:56:43;19.80;99.90
27745;DHT22;61387;48.112;8.616;2023-07-09T05:59:09;19.70;99.90
27745;DHT22;61387;48.112;8.616;2023-07-09T06:01:35;19.90;99.90
27745;DHT22;61387;48.112;8.616;2023-07-09T06:06:27;19.90;99.90
27745;DHT22;61387;48.112;8.616;2023-07-09T06:08:53;19.90;99.90
27745;DHT22;61387;48.112;8.616;2023-07-09T06:11:18;19.90;99.90
27745;DHT22;61387;48.112;8.616;2023-07-09T06:18:36;20.10;99.90
27745;DHT22;61387;48.112;8.616;2023-07-09T06:21:03;20.60;99.90
27745;DHT22;61387;48.112;8.616;2023-07-09T06:23:29;20.60;99.90
27745;DHT22;61387;48.112;8.616;2023-07-09T06:25:55;20.80;99.90
27745;DHT22;61387;48.112;8.616;2023-07-09T06:28:23;21.10;99.90
27745;DHT22;61387;48.112;8.616;2023-07-09T06:30:49;21.30;99.90
27745;DHT22;61387;48.112;8.616;2023-07-09T06:33:16;21.30;99.90
27745;DHT22;61387;48.112;8.616;2023-07-09T06:35:51;21.50;99.90
27745;DHT22;61387;48.112;8.616;2023-07-09T06:38:17;21.60;99.90
27745;DHT22;61387;48.112;8.616;2023-07-09T06:40:43;21.80;99.90
27745;DHT22;61387;48.112;8.616;2023-07-09T06:43:09;21.90;99.90
27745;DHT22;61387;48.112;8.616;2023-07-09T06:45:35;22.10;99.90
27745;DHT22;61387;48.112;8.616;2023-07-09T06:48:01;22.40;99.90
27745;DHT22;61387;48.112;8.616;2023-07-09T06:50:26;22.50;99.90
27745;DHT22;61387;48.112;8.616;2023-07-09T06:52:52;22.50;99.90
27745;DHT22;61387;48.112;8.616;2023-07-09T06:55:18;24.60;99.90
27745;DHT22;61387;48.112;8.616;2023-07-09T06:57:43;23.20;99.90
27745;DHT22;61387;48.112;8.616;2023-07-09T07:00:09;23.10;99.90
27745;DHT22;61387;48.112;8.616;2023-07-09T07:02:35;23.10;99.90
27745;DHT22;61387;48.112;8.616;2023-07-09T07:05:01;23.10;99.90
27745;DHT22;61387;48.112;8.616;2023-07-09T07:07:27;23.20;99.90
27745;DHT22;61387;48.112;8.616;2023-07-09T07:09:52;25.40;99.90
27745;DHT22;61387;48.112;8.616;2023-07-09T07:12:26;23.60;99.90
27745;DHT22;61387;48.112;8.616;2023-07-09T07:14:53;24.00;99.90
27745;DHT22;61387;48.112;8.616;2023-07-09T07:17:19;24.00;99.90
27745;DHT22;61387;48.112;8.616;2023-07-09T07:22:10;24.30;99.90
27745;DHT22;61387;48.112;8.616;2023-07-09T07:24:36;25.90;99.90
27745;DHT22;61387;48.112;8.616;2023-07-09T07:29:27;24.70;99.90
27745;DHT22;61387;48.112;8.616;2023-07-09T07:31:54;25.10;99.90
27745;DHT22;61387;48.112;8.616;2023-07-09T07:36:46;25.40;99.90
27745;DHT22;61387;48.112;8.616;2023-07-09T07:39:12;25.50;99.90
27745;DHT22;61387;48.112;8.616;2023-07-09T07:41:38;25.70;99.90
27745;DHT22;61387;48.112;8.616;2023-07-09T07:44:04;25.90;99.90
27745;DHT22;61387;48.112;8.616;2023-07-09T07:46:30;26.00;99.90
27745;DHT22;61387;48.112;8.616;2023-07-09T07:48:57;26.20;99.90
27745;DHT22;61387;48.112;8.616;2023-07-09T07:53:49;26.50;99.90
27745;DHT22;61387;48.112;8.616;2023-07-09T07:58:41;27.10;99.90
27745;DHT22;61387;48.112;8.616;2023-07-09T08:01:06;27.10;99.90
27745;DHT22;61387;48.112;8.616;2023-07-09T08:03:32;27.00;99.90
27745;DHT22;61387;48.112;8.616;2023-07-09T08:05:57;28.30;99.90
27745;DHT22;61387;48.112;8.616;2023-07-09T08:08:23;27.40;99.90
27745;DHT22;61387;48.112;8.616;2023-07-09T08:11:00;27.80;99.90
27745;DHT22;61387;48.112;8.616;2023-07-09T08:13:26;27.90;99.90
27745;DHT22;61387;48.112;8.616;2023-07-09T08:18:18;28.20;99.90
27745;DHT22;61387;48.112;8.616;2023-07-09T08:20:44;28.40;99.90
27745;DHT22;61387;48.112;8.616;2023-07-09T08:30:28;28.30;99.90
27745;DHT22;61387;48.112;8.616;2023-07-09T08:32:53;29.70;99.90
27745;DHT22;61387;48.112;8.616;2023-07-09T08:35:20;28.50;99.90
27745;DHT22;61387;48.112;8.616;2023-07-09T08:37:46;28.80;99.90
27745;DHT22;61387;48.112;8.616;2023-07-09T08:40:16;29.10;99.90
27745;DHT22;61387;48.112;8.616;2023-07-09T08:42:48;29.10;99.90
27745;DHT22;61387;48.112;8.616;2023-07-09T08:48:22;29.70;99.90
27745;DHT22;61387;48.112;8.616;2023-07-09T08:50:49;29.80;98.10
27745;DHT22;61387;48.112;8.616;2023-07-09T08:53:24;29.60;98.70
27745;DHT22;61387;48.112;8.616;2023-07-09T08:58:27;29.50;99.00
27745;DHT22;61387;48.112;8.616;2023-07-09T09:00:56;29.70;98.10
27745;DHT22;61387;48.112;8.616;2023-07-09T09:03:27;29.50;98.50
27745;DHT22;61387;48.112;8.616;2023-07-09T09:05:55;29.70;98.90
27745;DHT22;61387;48.112;8.616;2023-07-09T09:14:30;30.20;98.00
27745;DHT22;61387;48.112;8.616;2023-07-09T09:16:58;30.30;98.10
27745;DHT22;61387;48.112;8.616;2023-07-09T09:22:15;30.40;97.90
27745;DHT22;61387;48.112;8.616;2023-07-09T09:27:42;29.90;98.10
27745;DHT22;61387;48.112;8.616;2023-07-09T09:30:14;30.30;97.50
27745;DHT22;61387;48.112;8.616;2023-07-09T09:32:44;30.40;97.70
27745;DHT22;61387;48.112;8.616;2023-07-09T09:35:15;30.50;96.40
27745;DHT22;61387;48.112;8.616;2023-07-09T09:37:49;30.60;96.60
27745;DHT22;61387;48.112;8.616;2023-07-09T09:40:17;30.90;96.00
27745;DHT22;61387;48.112;8.616;2023-07-09T09:45:15;31.20;95.00
27745;DHT22;61387;48.112;8.616;2023-07-09T09:47:46;31.80;94.80
27745;DHT22;61387;48.112;8.616;2023-07-09T09:50:20;31.60;93.50
27745;DHT22;61387;48.112;8.616;2023-07-09T09:52:47;31.60;93.80
27745;DHT22;61387;48.112;8.616;2023-07-09T09:55:19;31.30;93.70
27745;DHT22;61387;48.112;8.616;2023-07-09T09:57:53;30.70;94.70
27745;DHT22;61387;48.112;8.616;2023-07-09T10:03:03;30.90;94.60
27745;DHT22;61387;48.112;8.616;2023-07-09T10:05:43;31.20;95.30
27745;DHT22;61387;48.112;8.616;2023-07-09T10:11:19;31.60;93.20
27745;DHT22;61387;48.112;8.616;2023-07-09T10:13:47;31.60;93.80
27745;DHT22;61387;48.112;8.616;2023-07-09T10:16:29;31.80;93.20
27745;DHT22;61387;48.112;8.616;2023-07-09T10:25:00;32.20;92.50
27745;DHT22;61387;48.112;8.616;2023-07-09T10:27:39;32.40;91.70
27745;DHT22;61387;48.112;8.616;2023-07-09T10:30:39;32.20;92.10
27745;DHT22;61387;48.112;8.616;2023-07-09T10:33:12;32.20;92.60
27745;DHT22;61387;48.112;8.616;2023-07-09T10:36:30;32.00;92.10
27745;DHT22;61387;48.112;8.616;2023-07-09T10:39:02;32.10;92.00
27745;DHT22;61387;48.112;8.616;2023-07-09T10:41:30;31.70;91.70
27745;DHT22;61387;48.112;8.616;2023-07-09T10:46:50;31.50;91.70
27745;DHT22;61387;48.112;8.616;2023-07-09T10:49:19;31.60;92.00
27745;DHT22;61387;48.112;8.616;2023-07-09T10:51:53;31.60;92.00
27745;DHT22;61387;48.112;8.616;2023-07-09T10:57:25;31.50;91.90
27745;DHT22;61387;48.112;8.616;2023-07-09T10:59:53;32.10;91.90
27745;DHT22;61387;48.112;8.616;2023-07-09T11:02:26;32.30;89.80
27745;DHT22;61387;48.112;8.616;2023-07-09T11:04:58;32.30;90.10
27745;DHT22;61387;48.112;8.616;2023-07-09T11:08:02;32.20;89.40
27745;DHT22;61387;48.112;8.616;2023-07-09T11:10:32;32.40;87.40
27745;DHT22;61387;48.112;8.616;2023-07-09T11:13:05;32.70;88.90
27745;DHT22;61387;48.112;8.616;2023-07-09T11:15:39;32.60;89.20
27745;DHT22;61387;48.112;8.616;2023-07-09T11:18:10;32.80;85.70
27745;DHT22;61387;48.112;8.616;2023-07-09T11:20:42;33.10;80.40
27745;DHT22;61387;48.112;8.616;2023-07-09T11:23:20;32.90;81.10
27745;DHT22;61387;48.112;8.616;2023-07-09T11:25:48;32.90;85.90
27745;DHT22;61387;48.112;8.616;2023-07-09T11:28:15;32.90;86.50
27745;DHT22;61387;48.112;8.616;2023-07-09T11:33:19;33.20;84.10
27745;DHT22;61387;48.112;8.616;2023-07-09T11:35:48;33.40;86.40
27745;DHT22;61387;48.112;8.616;2023-07-09T11:38:22;33.60;85.90
27745;DHT22;61387;48.112;8.616;2023-07-09T11:40:56;33.60;85.10
27745;DHT22;61387;48.112;8.616;2023-07-09T11:43:35;33.70;85.60
27745;DHT22;61387;48.112;8.616;2023-07-09T11:46:18;33.50;82.10
27745;DHT22;61387;48.112;8.616;2023-07-09T11:48:46;33.80;79.80
27745;DHT22;61387;48.112;8.616;2023-07-09T11:51:40;34.20;79.10
27745;DHT22;61387;48.112;8.616;2023-07-09T11:54:11;34.30;78.60
27745;DHT22;61387;48.112;8.616;2023-07-09T11:59:05;34.00;78.70
27745;DHT22;61387;48.112;8.616;2023-07-09T12:01:43;34.00;82.20
27745;DHT22;61387;48.112;8.616;2023-07-09T12:04:17;34.20;79.90
27745;DHT22;61387;48.112;8.616;2023-07-09T12:06:44;34.30;77.20
27745;DHT22;61387;48.112;8.616;2023-07-09T12:09:19;34.30;77.90
27745;DHT22;61387;48.112;8.616;2023-07-09T12:11:47;33.90;78.50
27745;DHT22;61387;48.112;8.616;2023-07-09T12:14:15;33.80;80.00
27745;DHT22;61387;48.112;8.616;2023-07-09T12:16:43;34.40;81.80
27745;DHT22;61387;48.112;8.616;2023-07-09T12:19:11;34.50;80.50
27745;DHT22;61387;48.112;8.616;2023-07-09T12:21:39;34.70;81.10
27745;DHT22;61387;48.112;8.616;2023-07-09T12:24:26;34.80;79.10
27745;DHT22;61387;48.112;8.616;2023-07-09T12:26:57;34.80;79.60
27745;DHT22;61387;48.112;8.616;2023-07-09T12:29:30;34.70;79.60
27745;DHT22;61387;48.112;8.616;2023-07-09T12:31:57;34.50;78.10
27745;DHT22;61387;48.112;8.616;2023-07-09T12:34:24;34.60;78.90
27745;DHT22;61387;48.112;8.616;2023-07-09T12:36:51;34.70;78.40
27745;DHT22;61387;48.112;8.616;2023-07-09T12:39:23;34.70;79.10
27745;DHT22;61387;48.112;8.616;2023-07-09T12:41:49;34.90;77.80
27745;DHT22;61387;48.112;8.616;2023-07-09T12:44:17;34.80;79.00
27745;DHT22;61387;48.112;8.616;2023-07-09T12:46:44;34.90;76.80
27745;DHT22;61387;48.112;8.616;2023-07-09T12:49:27;37.00;79.20
27745;DHT22;61387;48.112;8.616;2023-07-09T12:51:58;35.20;75.60
27745;DHT22;61387;48.112;8.616;2023-07-09T12:56:54;35.80;73.30
27745;DHT22;61387;48.112;8.616;2023-07-09T12:59:39;35.70;74.40
27745;DHT22;61387;48.112;8.616;2023-07-09T13:04:43;35.30;73.70
27745;DHT22;61387;48.112;8.616;2023-07-09T13:07:26;34.80;73.70
27745;DHT22;61387;48.112;8.616;2023-07-09T13:09:53;34.70;74.10
27745;DHT22;61387;48.112;8.616;2023-07-09T13:12:31;34.40;71.30
27745;DHT22;61387;48.112;8.616;2023-07-09T13:14:57;34.20;72.50
27745;DHT22;61387;48.112;8.616;2023-07-09T13:19:49;34.30;70.40
27745;DHT22;61387;48.112;8.616;2023-07-09T13:22:17;34.10;71.30
27745;DHT22;61387;48.112;8.616;2023-07-09T13:24:46;34.80;71.60
27745;DHT22;61387;48.112;8.616;2023-07-09T13:27:12;35.20;69.00
27745;DHT22;61387;48.112;8.616;2023-07-09T13:32:13;35.80;69.20
27745;DHT22;61387;48.112;8.616;2023-07-09T13:34:40;36.20;69.90
27745;DHT22;61387;48.112;8.616;2023-07-09T13:37:10;36.60;68.80
27745;DHT22;61387;48.112;8.616;2023-07-09T13:39:37;36.20;67.90
27745;DHT22;61387;48.112;8.616;2023-07-09T13:42:03;35.80;67.60
27745;DHT22;61387;48.112;8.616;2023-07-09T13:44:30;35.90;69.30
27745;DHT22;61387;48.112;8.616;2023-07-09T13:46:58;36.00;68.80
27745;DHT22;61387;48.112;8.616;2023-07-09T13:49:26;35.60;68.10
27745;DHT22;61387;48.112;8.616;2023-07-09T13:51:59;34.90;68.70
27745;DHT22;61387;48.112;8.616;2023-07-09T13:54:28;35.00;69.20
27745;DHT22;61387;48.112;8.616;2023-07-09T13:56:57;34.80;67.90
27745;DHT22;61387;48.112;8.616;2023-07-09T13:59:24;35.30;65.50
27745;DHT22;61387;48.112;8.616;2023-07-09T14:01:54;35.60;66.30
27745;DHT22;61387;48.112;8.616;2023-07-09T14:04:20;35.60;67.00
27745;DHT22;61387;48.112;8.616;2023-07-09T14:06:46;36.20;66.60
27745;DHT22;61387;48.112;8.616;2023-07-09T14:09:13;35.70;65.60
27745;DHT22;61387;48.112;8.616;2023-07-09T14:11:43;35.60;64.90
27745;DHT22;61387;48.112;8.616;2023-07-09T14:14:31;35.80;65.70
27745;DHT22;61387;48.112;8.616;2023-07-09T14:16:57;36.40;65.00
27745;DHT22;61387;48.112;8.616;2023-07-09T14:19:24;36.00;63.60
27745;DHT22;61387;48.112;8.616;2023-07-09T14:21:51;34.90;63.60
27745;DHT22;61387;48.112;8.616;2023-07-09T14:24:22;34.30;65.60
27745;DHT22;61387;48.112;8.616;2023-07-09T14:26:48;34.20;66.60
27745;DHT22;61387;48.112;8.616;2023-07-09T14:31:41;35.10;65.20
27745;DHT22;61387;48.112;8.616;2023-07-09T14:36:53;35.40;65.70
27745;DHT22;61387;48.112;8.616;2023-07-09T14:39:19;35.40;65.20
27745;DHT22;61387;48.112;8.616;2023-07-09T14:41:45;35.90;64.20
27745;DHT22;61387;48.112;8.616;2023-07-09T14:44:31;36.30;64.40
27745;DHT22;61387;48.112;8.616;2023-07-09T14:46:59;36.30;65.20
27745;DHT22;61387;48.112;8.616;2023-07-09T14:49:25;36.30;64.70
27745;DHT22;61387;48.112;8.616;2023-07-09T14:51:52;36.20;62.70
27745;DHT22;61387;48.112;8.616;2023-07-09T14:54:26;36.20;64.30
27745;DHT22;61387;48.112;8.616;2023-07-09T14:56:53;36.70;63.60
27745;DHT22;61387;48.112;8.616;2023-07-09T15:01:45;36.80;64.10
27745;DHT22;61387;48.112;8.616;2023-07-09T15:06:47;36.70;63.30
27745;DHT22;61387;48.112;8.616;2023-07-09T15:14:12;36.20;63.00
27745;DHT22;61387;48.112;8.616;2023-07-09T15:16:37;36.20;62.80
27745;DHT22;61387;48.112;8.616;2023-07-09T15:19:17;36.60;62.90
27745;DHT22;61387;48.112;8.616;2023-07-09T15:24:20;36.00;64.20
27745;DHT22;61387;48.112;8.616;2023-07-09T15:26:51;36.10;64.50
27745;DHT22;61387;48.112;8.616;2023-07-09T15:31:44;35.70;64.70
27745;DHT22;61387;48.112;8.616;2023-07-09T15:34:10;35.30;64.00
27745;DHT22;61387;48.112;8.616;2023-07-09T15:36:36;35.40;64.90
27745;DHT22;61387;48.112;8.616;2023-07-09T15:46:21;34.60;65.80
27745;DHT22;61387;48.112;8.616;2023-07-09T15:48:48;34.50;66.20
27745;DHT22;61387;48.112;8.616;2023-07-09T15:51:15;33.60;66.40
27745;DHT22;61387;48.112;8.616;2023-07-09T15:53:40;33.20;66.80
27745;DHT22;61387;48.112;8.616;2023-07-09T15:56:23;33.10;68.50
27745;DHT22;61387;48.112;8.616;2023-07-09T15:58:50;33.10;69.90
27745;DHT22;61387;48.112;8.616;2023-07-09T16:01:19;33.20;69.70
27745;DHT22;61387;48.112;8.616;2023-07-09T16:03:50;33.20;70.30
27745;DHT22;61387;48.112;8.616;2023-07-09T16:06:17;33.10;69.90
27745;DHT22;61387;48.112;8.616;2023-07-09T16:08:42;33.90;71.20
27745;DHT22;61387;48.112;8.616;2023-07-09T16:11:16;32.90;71.20
27745;DHT22;61387;48.112;8.616;2023-07-09T16:16:13;32.70;71.20
27745;DHT22;61387;48.112;8.616;2023-07-09T16:18:38;34.90;75.10
27745;DHT22;61387;48.112;8.616;2023-07-09T16:21:04;32.60;72.70
27745;DHT22;61387;48.112;8.616;2023-07-09T16:23:31;32.70;73.70
27745;DHT22;61387;48.112;8.616;2023-07-09T16:30:48;32.80;74.40
27745;DHT22;61387;48.112;8.616;2023-07-09T16:33:16;32.80;74.80
27745;DHT22;61387;48.112;8.616;2023-07-09T16:35:42;33.00;77.10
27745;DHT22;61387;48.112;8.616;2023-07-09T16:38:12;32.80;76.90
27745;DHT22;61387;48.112;8.616;2023-07-09T16:40:37;32.80;76.40
27745;DHT22;61387;48.112;8.616;2023-07-09T16:43:15;34.10;76.70
27745;DHT22;61387;48.112;8.616;2023-07-09T16:45:41;32.80;75.70
27745;DHT22;61387;48.112;8.616;2023-07-09T16:48:16;33.50;78.00
27745;DHT22;61387;48.112;8.616;2023-07-09T16:50:42;32.50;83.70
27745;DHT22;61387;48.112;8.616;2023-07-09T16:53:13;32.50;80.30
27745;DHT22;61387;48.112;8.616;2023-07-09T16:55:39;32.40;80.20
27745;DHT22;61387;48.112;8.616;2023-07-09T16:58:07;34.70;82.70
27745;DHT22;61387;48.112;8.616;2023-07-09T17:00:39;32.20;79.70
27745;DHT22;61387;48.112;8.616;2023-07-09T17:03:05;32.20;80.40
27745;DHT22;61387;48.112;8.616;2023-07-09T17:05:38;31.90;79.70
27745;DHT22;61387;48.112;8.616;2023-07-09T17:08:04;32.60;80.80
27745;DHT22;61387;48.112;8.616;2023-07-09T17:12:58;31.40;78.70
27745;DHT22;61387;48.112;8.616;2023-07-09T17:15:30;31.40;78.30
27745;DHT22;61387;48.112;8.616;2023-07-09T17:17:57;31.40;79.00
27745;DHT22;61387;48.112;8.616;2023-07-09T17:20:24;31.20;79.90
27745;DHT22;61387;48.112;8.616;2023-07-09T17:22:52;31.20;79.90
27745;DHT22;61387;48.112;8.616;2023-07-09T17:25:29;31.10;80.50
27745;DHT22;61387;48.112;8.616;2023-07-09T17:27:56;31.00;80.60
27745;DHT22;61387;48.112;8.616;2023-07-09T17:35:14;30.90;78.20
27745;DHT22;61387;48.112;8.616;2023-07-09T17:37:42;30.90;79.70
27745;DHT22;61387;48.112;8.616;2023-07-09T17:45:13;30.80;77.90
27745;DHT22;61387;48.112;8.616;2023-07-09T17:47:41;30.60;78.80
27745;DHT22;61387;48.112;8.616;2023-07-09T17:50:33;30.60;78.50
27745;DHT22;61387;48.112;8.616;2023-07-09T17:52:58;30.60;79.50
27745;DHT22;61387;48.112;8.616;2023-07-09T17:55:24;31.00;79.20
27745;DHT22;61387;48.112;8.616;2023-07-09T17:57:52;30.70;80.30
27745;DHT22;61387;48.112;8.616;2023-07-09T18:00:26;30.40;82.10
27745;DHT22;61387;48.112;8.616;2023-07-09T18:03:00;30.10;82.40
27745;DHT22;61387;48.112;8.616;2023-07-09T18:05:29;30.00;83.70
27745;DHT22;61387;48.112;8.616;2023-07-09T18:07:55;30.00;84.40
27745;DHT22;61387;48.112;8.616;2023-07-09T18:10:26;30.00;83.70
27745;DHT22;61387;48.112;8.616;2023-07-09T18:13:01;30.00;84.30
27745;DHT22;61387;48.112;8.616;2023-07-09T18:15:28;29.80;84.00
27745;DHT22;61387;48.112;8.616;2023-07-09T18:17:54;30.30;84.70
27745;DHT22;61387;48.112;8.616;2023-07-09T18:20:22;29.70;83.40
27745;DHT22;61387;48.112;8.616;2023-07-09T18:22:48;29.70;84.00
27745;DHT22;61387;48.112;8.616;2023-07-09T18:25:14;29.70;85.20
27745;DHT22;61387;48.112;8.616;2023-07-09T18:27:45;29.70;85.10
27745;DHT22;61387;48.112;8.616;2023-07-09T18:30:25;29.30;90.40
27745;DHT22;61387;48.112;8.616;2023-07-09T18:32:52;29.20;91.00
27745;DHT22;61387;48.112;8.616;2023-07-09T18:35:29;29.00;90.50
27745;DHT22;61387;48.112;8.616;2023-07-09T18:38:01;29.00;89.90
27745;DHT22;61387;48.112;8.616;2023-07-09T18:40:39;28.90;89.20
27745;DHT22;61387;48.112;8.616;2023-07-09T18:45:35;28.80;90.10
27745;DHT22;61387;48.112;8.616;2023-07-09T18:50:29;28.70;90.50
27745;DHT22;61387;48.112;8.616;2023-07-09T18:52:56;28.50;90.80
27745;DHT22;61387;48.112;8.616;2023-07-09T18:55:24;28.40;91.10
27745;DHT22;61387;48.112;8.616;2023-07-09T18:57:51;28.40;90.00
27745;DHT22;61387;48.112;8.616;2023-07-09T19:00:17;28.30;90.10
27745;DHT22;61387;48.112;8.616;2023-07-09T19:02:45;28.20;90.40
27745;DHT22;61387;48.112;8.616;2023-07-09T19:05:25;26.80;90.20
27745;DHT22;61387;48.112;8.616;2023-07-09T19:07:53;28.00;90.70
27745;DHT22;61387;48.112;8.616;2023-07-09T19:10:29;27.90;90.90
27745;DHT22;61387;48.112;8.616;2023-07-09T19:12:59;27.90;91.20
27745;DHT22;61387;48.112;8.616;2023-07-09T19:15:29;29.20;92.10
27745;DHT22;61387;48.112;8.616;2023-07-09T19:17:57;27.80;92.10
27745;DHT22;61387;48.112;8.616;2023-07-09T19:20:25;27.30;92.70
27745;DHT22;61387;48.112;8.616;2023-07-09T19:22:52;27.90;93.30
27745;DHT22;61387;48.112;8.616;2023-07-09T19:25:21;26.90;93.50
27745;DHT22;61387;48.112;8.616;2023-07-09T19:27:48;26.90;94.00
27745;DHT22;61387;48.112;8.616;2023-07-09T19:30:16;26.50;94.80
27745;DHT22;61387;48.112;8.616;2023-07-09T19:32:45;26.40;95.00
27745;DHT22;61387;48.112;8.616;2023-07-09T19:35:17;26.20;95.30
27745;DHT22;61387;48.112;8.616;2023-07-09T19:40:26;25.40;95.70
27745;DHT22;61387;48.112;8.616;2023-07-09T19:42:53;25.20;95.60
27745;DHT22;61387;48.112;8.616;2023-07-09T19:45:22;25.20;95.90
27745;DHT22;61387;48.112;8.616;2023-07-09T19:47:49;25.00;96.40
27745;DHT22;61387;48.112;8.616;2023-07-09T19:50:23;24.90;96.80